Time;durP1;ratioP1;P1;durP2;ratioP2;P2;SDS_P1;SDS_P2;PMS_P1;PMS_P2;Temp;Humidity;BMP_temperature;BMP_pressure;BME280_temperature;BME280_humidity;BME280_pressure;Samples;Min_cycle;Max_cycle;Signal;HPM_P1;HPM_P2
2023/02/15 00:01:54;;;;;;;85.35;53.78;;;;;;;;;;4402737;32;319422;-88
2023/02/15 00:04:23;;;;;;;50.10;30.03;;;;;;;;;;4403288;32;318304;-88
2023/02/15 00:06:50;;;;;;;53.43;30.47;;;;;;;;;;4393842;32;318076;-87
2023/02/15 00:09:18;;;;;;;46.23;28.27;;;;;;;;;;4403574;32;317496;-88
2023/02/15 00:11:49;;;;;;;49.67;29.07;;;;;;;;;;4393835;32;318097;-88
2023/02/15 00:14:18;;;;;;;43.20;27.23;;;;;;;;;;4403370;32;317461;-88
2023/02/15 00:16:45;;;;;;;44.53;26.83;;;;;;;;;;4393420;32;317701;-88
2023/02/15 00:19:13;;;;;;;61.97;39.90;;;;;;;;;;4403313;32;318228;-88
2023/02/15 00:21:41;;;;;;;60.23;39.93;;;;;;;;;;4396066;32;317689;-88
2023/02/15 00:24:11;;;;;;;59.20;38.03;;;;;;;;;;4406101;32;318244;-88
2023/02/15 00:26:40;;;;;;;65.60;41.13;;;;;;;;;;4395337;32;317519;-88
2023/02/15 00:29:07;;;;;;;81.00;52.93;;;;;;;;;;4404672;32;317543;-88
2023/02/15 00:31:35;;;;;;;65.03;45.10;;;;;;;;;;4396597;32;318585;-89
2023/02/15 00:34:03;;;;;;;44.50;32.50;;;;;;;;;;4404721;32;317633;-88
2023/02/15 00:36:30;;;;;;;35.80;26.70;;;;;;;;;;4395490;32;354970;-87
2023/02/15 00:38:56;;;;;;;30.23;23.93;;;;;;;;;;4405875;32;318460;-88
2023/02/15 00:41:26;;;;;;;42.13;25.57;;;;;;;;;;4406140;32;317721;-88
2023/02/15 00:43:54;;;;;;;33.83;24.37;;;;;;;;;;4390990;32;417846;-88
2023/02/15 00:46:21;;;;;;;36.10;23.83;;;;;;;;;;4405061;32;318281;-88
2023/02/15 00:48:48;;;;;;;36.27;24.03;;;;;;;;;;4395747;32;318364;-87
2023/02/15 00:51:14;;;;;;;35.63;21.77;;;;;;;;;;4406199;32;318492;-88
2023/02/15 00:53:41;;;;;;;34.20;19.97;;;;;;;;;;4396124;32;318188;-88
2023/02/15 00:56:08;;;;;;;30.87;18.77;;;;;;;;;;4405386;32;317480;-87
2023/02/15 00:58:35;;;;;;;36.17;20.17;;;;;;;;;;4396290;32;333977;-88
2023/02/15 01:01:06;;;;;;;38.93;22.00;;;;;;;;;;4406348;32;317619;-88
2023/02/15 01:03:33;;;;;;;25.37;16.83;;;;;;;;;;4395024;32;317901;-88
2023/02/15 01:05:59;;;;;;;21.90;15.97;;;;;;;;;;4404994;32;318054;-88
2023/02/15 01:08:26;;;;;;;29.47;16.73;;;;;;;;;;4395238;32;318363;-87
2023/02/15 01:10:54;;;;;;;31.33;18.53;;;;;;;;;;4405405;32;317731;-88
2023/02/15 01:13:20;;;;;;;24.30;15.93;;;;;;;;;;4405327;32;318436;-88
2023/02/15 01:15:53;;;;;;;36.37;18.60;;;;;;;;;;4396050;32;318384;-88
2023/02/15 01:18:22;;;;;;;26.03;16.57;;;;;;;;;;4405762;32;318288;-88
2023/02/15 01:20:49;;;;;;;31.50;18.77;;;;;;;;;;4395533;32;317579;-87
2023/02/15 01:23:16;;;;;;;31.67;19.13;;;;;;;;;;4404192;32;318332;-88
2023/02/15 01:25:43;;;;;;;36.57;19.80;;;;;;;;;;4395676;32;318150;-88
2023/02/15 01:28:22;;;;;;;29.30;20.03;;;;;;;;;;4405718;32;317421;-88
2023/02/15 01:30:49;;;;;;;32.13;21.33;;;;;;;;;;4395499;32;318492;-88
2023/02/15 01:33:20;;;;;;;33.00;21.57;;;;;;;;;;4406858;32;318770;-88
2023/02/15 01:35:48;;;;;;;37.63;22.50;;;;;;;;;;4396190;32;317620;-88
2023/02/15 01:38:16;;;;;;;32.60;20.13;;;;;;;;;;4405879;32;318234;-88
2023/02/15 01:41:19;;;;;;;36.13;23.10;;;;;;;;;;4395642;32;318127;-88
2023/02/15 01:43:43;;;;;;;39.33;23.63;;;;;;;;;;4394733;32;318199;-88
2023/02/15 01:46:12;;;;;;;33.60;21.93;;;;;;;;;;4407397;32;318339;-89
2023/02/15 01:48:44;;;;;;;42.90;24.40;;;;;;;;;;4396757;32;318339;-88
2023/02/15 01:51:13;;;;;;;35.53;21.30;;;;;;;;;;4404529;32;318511;-88
2023/02/15 01:53:43;;;;;;;39.43;23.00;;;;;;;;;;4394154;32;318429;-88
2023/02/15 01:56:14;;;;;;;42.53;24.27;;;;;;;;;;4405679;32;317793;-88
2023/02/15 01:58:43;;;;;;;37.47;25.27;;;;;;;;;;4394992;32;318351;-88
2023/02/15 02:01:10;;;;;;;43.10;27.87;;;;;;;;;;4404134;32;317952;-88
2023/02/15 02:03:46;;;;;;;41.27;27.63;;;;;;;;;;4394197;32;318276;-88
2023/02/15 02:06:14;;;;;;;45.43;25.37;;;;;;;;;;4405230;32;317547;-87
2023/02/15 02:08:42;;;;;;;41.43;24.83;;;;;;;;;;4394636;32;325674;-88
2023/02/15 02:11:12;;;;;;;35.80;23.37;;;;;;;;;;4403571;32;317447;-88
2023/02/15 02:13:39;;;;;;;37.03;24.60;;;;;;;;;;4394731;32;317674;-88
2023/02/15 02:16:12;;;;;;;51.07;26.47;;;;;;;;;;4403668;32;318432;-88
2023/02/15 02:18:48;;;;;;;45.03;28.23;;;;;;;;;;4394606;32;318367;-88
2023/02/15 02:21:42;;;;;;;45.87;28.00;;;;;;;;;;4404850;32;318430;-88
2023/02/15 02:24:36;;;;;;;49.73;28.30;;;;;;;;;;4391246;32;420074;-88
2023/02/15 02:27:19;;;;;;;45.20;26.67;;;;;;;;;;4392343;32;415324;-88
2023/02/15 02:30:21;;;;;;;52.77;30.43;;;;;;;;;;4394740;32;318376;-88
2023/02/15 02:33:17;;;;;;;64.67;33.90;;;;;;;;;;4394875;32;318352;-88
2023/02/15 02:35:54;;;;;;;50.87;31.70;;;;;;;;;;4371739;32;355614;-88
2023/02/15 02:38:28;;;;;;;55.73;33.40;;;;;;;;;;4404745;32;318403;-89
2023/02/15 02:41:05;;;;;;;65.00;37.23;;;;;;;;;;4391825;32;416938;-88
2023/02/15 02:43:36;;;;;;;50.53;31.80;;;;;;;;;;4392806;32;318824;-88
2023/02/15 02:46:08;;;;;;;53.83;32.97;;;;;;;;;;4403409;32;318558;-88
2023/02/15 02:48:36;;;;;;;56.13;35.37;;;;;;;;;;4394279;32;318307;-88
2023/02/15 02:51:03;;;;;;;56.93;35.20;;;;;;;;;;4404379;32;318597;-88
2023/02/15 02:53:32;;;;;;;55.90;32.60;;;;;;;;;;4394374;32;317734;-88
2023/02/15 02:56:03;;;;;;;59.33;33.33;;;;;;;;;;4404567;32;318529;-88
2023/02/15 02:58:35;;;;;;;52.57;34.13;;;;;;;;;;4393484;32;318354;-88
2023/02/15 03:01:07;;;;;;;58.37;33.87;;;;;;;;;;4402849;32;330086;-88
2023/02/15 03:03:39;;;;;;;59.87;37.40;;;;;;;;;;4394503;32;318588;-88
2023/02/15 03:06:10;;;;;;;64.03;39.97;;;;;;;;;;4404681;32;317720;-88
2023/02/15 03:08:41;;;;;;;66.33;41.10;;;;;;;;;;4394545;32;318575;-88
2023/02/15 03:11:08;;;;;;;60.67;36.47;;;;;;;;;;4404315;32;317727;-88
2023/02/15 03:13:36;;;;;;;59.30;35.77;;;;;;;;;;4391947;32;345273;-88
2023/02/15 03:18:57;;;;;;;63.33;37.13;;;;;;;;;;4388318;32;388731;-88
2023/02/15 03:21:31;;;;;;;83.80;44.10;;;;;;;;;;4390967;32;318469;-88
2023/02/15 03:24:02;;;;;;;76.37;44.03;;;;;;;;;;4391098;32;415279;-88
2023/02/15 03:26:30;;;;;;;82.37;47.43;;;;;;;;;;4393844;32;317604;-88
2023/02/15 03:28:59;;;;;;;81.63;49.03;;;;;;;;;;4402909;32;318712;-88
2023/02/15 03:31:29;;;;;;;71.73;44.57;;;;;;;;;;4403937;32;318232;-88
2023/02/15 03:34:01;;;;;;;74.37;45.03;;;;;;;;;;4390397;32;417500;-88
2023/02/15 03:36:31;;;;;;;76.43;46.43;;;;;;;;;;4394068;32;318490;-88
2023/02/15 03:39:04;;;;;;;81.50;48.27;;;;;;;;;;4402597;32;318285;-87
2023/02/15 03:41:35;;;;;;;87.97;47.70;;;;;;;;;;4393767;32;317815;-88
2023/02/15 03:44:07;;;;;;;80.83;48.83;;;;;;;;;;4402488;32;317644;-88
2023/02/15 03:46:39;;;;;;;79.07;48.07;;;;;;;;;;4393994;32;318081;-88
2023/02/15 03:49:12;;;;;;;72.77;42.73;;;;;;;;;;4402295;32;318472;-88
2023/02/15 03:51:41;;;;;;;87.07;48.23;;;;;;;;;;4394452;32;318404;-88
2023/02/15 03:54:11;;;;;;;87.47;49.13;;;;;;;;;;4403714;32;317686;-88
2023/02/15 03:56:40;;;;;;;123.30;62.43;;;;;;;;;;4397039;32;318363;-88
2023/02/15 04:02:05;;;;;;;134.27;74.87;;;;;;;;;;4395162;32;388878;-87
2023/02/15 04:04:36;;;;;;;144.10;74.67;;;;;;;;;;4392786;32;319557;-87
2023/02/15 04:07:06;;;;;;;118.87;67.70;;;;;;;;;;4409391;32;320054;-88
2023/02/15 04:12:17;;;;;;;110.27;60.47;;;;;;;;;;4408573;32;319278;-89
2023/02/15 04:17:37;;;;;;;110.33;61.30;;;;;;;;;;4371751;32;319510;-88
2023/02/15 04:25:37;;;;;;;118.80;66.73;;;;;;;;;;4395044;32;318646;-88
2023/02/15 04:28:04;;;;;;;128.93;72.27;;;;;;;;;;4391402;32;319381;-88
2023/02/15 04:30:31;;;;;;;121.93;73.83;;;;;;;;;;4394902;32;319467;-88
2023/02/15 04:32:58;;;;;;;133.90;74.77;;;;;;;;;;4406431;32;319334;-87
2023/02/15 04:35:26;;;;;;;133.00;75.40;;;;;;;;;;4405912;32;319906;-88
2023/02/15 04:37:53;;;;;;;119.30;67.90;;;;;;;;;;4391062;32;418139;-88
2023/02/15 04:40:20;;;;;;;112.30;62.63;;;;;;;;;;4406389;32;319260;-88
2023/02/15 04:42:48;;;;;;;108.87;64.67;;;;;;;;;;4396170;32;319181;-88
2023/02/15 04:45:15;;;;;;;126.70;68.93;;;;;;;;;;4405249;32;318813;-88
2023/02/15 04:47:42;;;;;;;108.27;62.70;;;;;;;;;;4395021;32;318782;-88
2023/02/15 04:50:10;;;;;;;91.57;49.93;;;;;;;;;;4407234;32;356776;-88
2023/02/15 04:52:38;;;;;;;79.60;45.90;;;;;;;;;;4400273;32;318445;-88
2023/02/15 04:55:05;;;;;;;76.03;46.90;;;;;;;;;;4410721;32;318722;-87
2023/02/15 04:57:32;;;;;;;198.83;81.87;;;;;;;;;;4398642;32;318231;-87
2023/02/15 04:59:59;;;;;;;141.97;63.87;;;;;;;;;;4409677;32;319034;-88
2023/02/15 05:02:26;;;;;;;226.27;85.63;;;;;;;;;;4412626;32;319175;-87
2023/02/15 05:04:52;;;;;;;89.93;48.83;;;;;;;;;;4399306;32;418214;-88
2023/02/15 05:07:20;;;;;;;85.03;47.33;;;;;;;;;;4411017;32;317506;-87
2023/02/15 05:09:48;;;;;;;100.57;52.90;;;;;;;;;;4402101;32;318166;-88
2023/02/15 05:12:15;;;;;;;89.83;54.60;;;;;;;;;;4410858;32;319101;-88
2023/02/15 05:14:42;;;;;;;182.53;77.80;;;;;;;;;;4396197;32;327914;-88
2023/02/15 05:17:09;;;;;;;134.00;63.27;;;;;;;;;;4406341;32;318509;-88
2023/02/15 05:19:35;;;;;;;239.00;95.60;;;;;;;;;;4395528;32;318738;-88
2023/02/15 05:22:02;;;;;;;103.20;58.57;;;;;;;;;;4404832;32;319388;-88
2023/02/15 05:29:56;;;;;;;101.10;55.43;;;;;;;;;;4353292;32;387733;-89
2023/02/15 05:32:22;;;;;;;111.13;60.60;;;;;;;;;;4399541;32;319519;-88
2023/02/15 05:34:49;;;;;;;197.60;73.17;;;;;;;;;;4387913;32;318586;-88
2023/02/15 05:37:16;;;;;;;93.10;51.20;;;;;;;;;;4399249;32;318451;-89
2023/02/15 05:39:43;;;;;;;51.47;33.73;;;;;;;;;;4392747;32;318316;-89
2023/02/15 05:42:10;;;;;;;128.90;51.87;;;;;;;;;;4402327;32;318466;-89
2023/02/15 05:44:39;;;;;;;91.47;50.97;;;;;;;;;;4392170;32;318454;-89
2023/02/15 05:47:08;;;;;;;150.83;93.37;;;;;;;;;;4398744;32;317437;-90
2023/02/15 05:49:35;;;;;;;78.60;48.50;;;;;;;;;;4399488;32;319219;-89
2023/02/15 05:52:03;;;;;;;65.23;40.40;;;;;;;;;;4405245;32;317580;-90
2023/02/15 05:54:30;;;;;;;64.57;39.50;;;;;;;;;;4395463;32;327373;-90
2023/02/15 05:56:57;;;;;;;68.13;39.07;;;;;;;;;;4405075;32;318512;-89
2023/02/15 05:59:24;;;;;;;59.70;38.27;;;;;;;;;;4405161;32;317637;-89
2023/02/15 06:01:52;;;;;;;64.97;40.63;;;;;;;;;;4394185;32;318286;-89
2023/02/15 06:04:20;;;;;;;79.73;49.50;;;;;;;;;;4405053;32;318148;-89
2023/02/15 06:06:47;;;;;;;98.43;59.03;;;;;;;;;;4395961;32;317634;-89
2023/02/15 06:12:01;;;;;;;104.00;64.63;;;;;;;;;;4392512;32;387851;-89
2023/02/15 06:14:29;;;;;;;106.63;61.80;;;;;;;;;;4397810;32;318740;-90
2023/02/15 06:17:03;;;;;;;105.80;62.63;;;;;;;;;;4405519;32;319418;-90
2023/02/15 06:19:29;;;;;;;107.63;61.37;;;;;;;;;;4394129;32;318859;-88
2023/02/15 06:21:56;;;;;;;92.77;58.03;;;;;;;;;;4403399;32;318374;-88
2023/02/15 06:24:23;;;;;;;115.03;63.17;;;;;;;;;;4406261;32;318127;-89
2023/02/15 06:26:50;;;;;;;133.13;73.87;;;;;;;;;;4395667;32;319429;-89
2023/02/15 06:29:17;;;;;;;139.13;78.23;;;;;;;;;;4406732;32;318447;-88
2023/02/15 06:31:44;;;;;;;190.97;111.60;;;;;;;;;;4397772;32;318730;-92
2023/02/15 06:34:12;;;;;;;160.47;87.63;;;;;;;;;;4407243;32;320165;-88
2023/02/15 06:36:39;;;;;;;143.87;81.20;;;;;;;;;;4395860;32;319413;-89
2023/02/15 06:39:06;;;;;;;145.73;87.83;;;;;;;;;;4405632;32;318547;-89
2023/02/15 06:41:33;;;;;;;138.57;80.80;;;;;;;;;;4394390;32;318654;-89
2023/02/15 06:43:59;;;;;;;135.20;76.33;;;;;;;;;;4404612;32;319492;-88
2023/02/15 06:46:27;;;;;;;171.63;87.50;;;;;;;;;;4401187;32;318465;-93
2023/02/15 06:48:53;;;;;;;132.50;67.07;;;;;;;;;;4404448;32;318735;-88
2023/02/15 06:51:22;;;;;;;110.83;60.07;;;;;;;;;;4403603;32;318532;-88
2023/02/15 06:53:48;;;;;;;127.73;67.67;;;;;;;;;;4392665;32;318785;-89
2023/02/15 06:56:15;;;;;;;163.60;77.77;;;;;;;;;;4402012;32;348469;-89
2023/02/15 06:58:45;;;;;;;146.90;77.30;;;;;;;;;;4393809;32;318812;-88
2023/02/15 07:01:12;;;;;;;92.60;53.00;;;;;;;;;;4403375;32;318684;-90
2023/02/15 07:03:40;;;;;;;104.93;58.60;;;;;;;;;;4395545;32;329570;-89
2023/02/15 07:06:08;;;;;;;228.60;101.93;;;;;;;;;;4402258;32;318690;-89
2023/02/15 07:08:37;;;;;;;101.47;62.60;;;;;;;;;;4393789;32;320389;-89
2023/02/15 07:13:45;;;;;;;122.17;66.93;;;;;;;;;;4393485;32;317502;-89
2023/02/15 07:16:12;;;;;;;126.00;64.63;;;;;;;;;;4402912;32;319456;-89
2023/02/15 07:18:39;;;;;;;96.77;52.60;;;;;;;;;;4393922;32;319301;-86
2023/02/15 07:21:07;;;;;;;136.83;68.23;;;;;;;;;;4402128;32;318389;-89
2023/02/15 07:23:36;;;;;;;111.20;67.23;;;;;;;;;;4391580;32;355558;-89
2023/02/15 07:26:03;;;;;;;110.13;67.97;;;;;;;;;;4404096;32;319516;-90
2023/02/15 07:28:30;;;;;;;135.20;81.63;;;;;;;;;;4394232;32;319100;-89
2023/02/15 07:30:57;;;;;;;170.23;100.57;;;;;;;;;;4408761;32;318548;-89
2023/02/15 07:33:26;;;;;;;162.70;96.67;;;;;;;;;;4408101;32;319621;-89
2023/02/15 07:35:55;;;;;;;137.20;83.97;;;;;;;;;;4394758;32;417957;-89
2023/02/15 07:38:22;;;;;;;148.37;85.67;;;;;;;;;;4407688;32;318651;-89
2023/02/15 07:40:58;;;;;;;149.70;90.90;;;;;;;;;;4398401;32;318698;-89
2023/02/15 07:43:25;;;;;;;120.10;76.80;;;;;;;;;;4408370;32;318590;-89
2023/02/15 07:45:51;;;;;;;123.43;75.80;;;;;;;;;;4394471;32;418734;-89
2023/02/15 07:48:18;;;;;;;105.37;70.23;;;;;;;;;;4405864;32;348582;-88
2023/02/15 07:50:45;;;;;;;112.80;69.30;;;;;;;;;;4390061;32;318674;-89
2023/02/15 07:53:12;;;;;;;105.43;68.17;;;;;;;;;;4408842;32;319434;-89
2023/02/15 07:55:39;;;;;;;99.03;66.17;;;;;;;;;;4395891;32;360563;-90
2023/02/15 07:58:07;;;;;;;112.10;67.23;;;;;;;;;;4408702;32;317488;-88
2023/02/15 08:00:56;;;;;;;111.93;68.97;;;;;;;;;;4397324;32;345293;-89
2023/02/15 08:03:26;;;;;;;116.30;69.70;;;;;;;;;;4407036;32;318619;-89
2023/02/15 08:05:57;;;;;;;120.10;72.23;;;;;;;;;;4395217;32;418445;-89
2023/02/15 08:08:30;;;;;;;122.17;73.40;;;;;;;;;;4406234;32;336637;-88
2023/02/15 08:13:54;;;;;;;160.40;94.13;;;;;;;;;;4383155;32;319058;-90
2023/02/15 08:16:23;;;;;;;122.17;74.80;;;;;;;;;;4392325;32;318857;-89
2023/02/15 08:18:50;;;;;;;116.67;72.50;;;;;;;;;;4383084;32;319411;-88
2023/02/15 08:21:16;;;;;;;116.30;72.80;;;;;;;;;;4391998;32;318620;-89
2023/02/15 08:23:43;;;;;;;114.27;74.47;;;;;;;;;;4380768;32;319184;-88
2023/02/15 08:26:10;;;;;;;119.23;76.43;;;;;;;;;;4392321;32;319152;-88
2023/02/15 08:28:37;;;;;;;128.33;77.07;;;;;;;;;;4380900;32;336658;-88
2023/02/15 08:31:09;;;;;;;89.33;57.27;;;;;;;;;;4392062;32;318669;-88
2023/02/15 08:33:37;;;;;;;86.87;53.27;;;;;;;;;;4383478;32;318064;-90
2023/02/15 08:36:05;;;;;;;52.07;35.53;;;;;;;;;;4392987;32;318116;-89
2023/02/15 08:38:32;;;;;;;52.07;35.43;;;;;;;;;;4383485;32;317831;-90
2023/02/15 08:41:09;;;;;;;57.60;37.00;;;;;;;;;;4377392;32;328430;-88
2023/02/15 08:43:35;;;;;;;64.33;40.13;;;;;;;;;;4379283;32;318090;-88
2023/02/15 08:46:02;;;;;;;47.93;30.63;;;;;;;;;;4388949;32;318212;-89
2023/02/15 08:48:30;;;;;;;40.40;26.97;;;;;;;;;;4380308;32;318396;-89
2023/02/15 08:50:57;;;;;;;33.27;21.40;;;;;;;;;;4388712;32;318069;-89
2023/02/15 08:53:24;;;;;;;33.97;21.67;;;;;;;;;;4390630;32;318284;-88
2023/02/15 08:55:57;;;;;;;45.50;25.47;;;;;;;;;;4380925;32;317525;-90
2023/02/15 08:58:24;;;;;;;37.37;22.83;;;;;;;;;;4389434;32;317465;-90
2023/02/15 09:00:51;;;;;;;30.90;18.97;;;;;;;;;;4379680;32;317394;-90
2023/02/15 09:03:18;;;;;;;25.67;17.90;;;;;;;;;;4390476;32;318311;-89
2023/02/15 09:05:46;;;;;;;29.83;20.73;;;;;;;;;;4381318;32;318021;-89
2023/02/15 09:08:13;;;;;;;25.77;18.83;;;;;;;;;;4390747;32;317433;-88
2023/02/15 09:10:40;;;;;;;36.70;23.73;;;;;;;;;;4379376;32;318707;-86
2023/02/15 09:13:06;;;;;;;35.53;21.57;;;;;;;;;;4389108;32;317933;-86
2023/02/15 09:15:33;;;;;;;33.27;22.40;;;;;;;;;;4387347;32;317147;-86
2023/02/15 09:18:04;;;;;;;48.27;29.10;;;;;;;;;;4394732;32;317582;-88
2023/02/15 09:20:30;;;;;;;51.50;30.00;;;;;;;;;;4377821;32;318480;-88
2023/02/15 09:22:59;;;;;;;29.37;21.30;;;;;;;;;;4388386;32;317650;-86
2023/02/15 09:25:27;;;;;;;35.63;23.90;;;;;;;;;;4390160;32;318457;-88
2023/02/15 09:27:53;;;;;;;28.50;18.77;;;;;;;;;;4375434;32;417476;-87
2023/02/15 09:30:21;;;;;;;38.70;24.83;;;;;;;;;;4388478;32;358479;-87
2023/02/15 09:32:48;;;;;;;28.13;20.20;;;;;;;;;;4378210;32;317521;-87
2023/02/15 09:35:15;;;;;;;26.20;19.40;;;;;;;;;;4389761;32;318694;-89
2023/02/15 09:37:42;;;;;;;33.07;21.20;;;;;;;;;;4379690;32;317676;-88
2023/02/15 09:40:17;;;;;;;21.07;16.77;;;;;;;;;;4388813;32;317530;-89
2023/02/15 09:43:11;;;;;;;28.43;21.47;;;;;;;;;;4377573;32;347360;-87
2023/02/15 09:46:00;;;;;;;19.57;14.07;;;;;;;;;;4378288;32;318661;-88
2023/02/15 09:48:40;;;;;;;22.37;14.27;;;;;;;;;;4380386;32;318389;-91
2023/02/15 09:51:40;;;;;;;21.53;15.90;;;;;;;;;;4391220;32;317730;-89
2023/02/15 09:54:17;;;;;;;19.30;14.40;;;;;;;;;;4374820;32;418063;-88
2023/02/15 09:56:52;;;;;;;28.43;14.80;;;;;;;;;;4379041;32;317235;-91
2023/02/15 09:59:28;;;;;;;20.77;17.03;;;;;;;;;;4388997;32;317411;-88
2023/02/15 10:02:03;;;;;;;23.27;17.70;;;;;;;;;;4363070;32;421409;-89
2023/02/15 10:04:48;;;;;;;21.03;14.90;;;;;;;;;;4382983;32;318209;-88
2023/02/15 10:07:30;;;;;;;18.80;14.57;;;;;;;;;;4388578;32;317599;-89
2023/02/15 10:10:10;;;;;;;17.63;14.13;;;;;;;;;;4390986;32;419113;-89
2023/02/15 10:13:05;;;;;;;20.80;14.93;;;;;;;;;;4393549;32;318533;-89
2023/02/15 10:15:50;;;;;;;19.23;14.27;;;;;;;;;;4392844;32;318474;-90
2023/02/15 10:18:31;;;;;;;22.97;14.23;;;;;;;;;;4404784;32;317526;-89
2023/02/15 10:21:09;;;;;;;17.63;14.13;;;;;;;;;;4391210;32;418305;-89
2023/02/15 10:24:08;;;;;;;18.57;14.80;;;;;;;;;;4394338;32;349720;-89
2023/02/15 10:26:42;;;;;;;19.93;14.80;;;;;;;;;;4394857;32;317806;-89
2023/02/15 10:29:17;;;;;;;21.90;15.07;;;;;;;;;;4403558;32;318066;-88
2023/02/15 10:31:50;;;;;;;23.50;16.03;;;;;;;;;;4393592;32;317628;-91
2023/02/15 10:34:18;;;;;;;21.03;15.87;;;;;;;;;;4404318;32;317508;-92
2023/02/15 10:37:05;;;;;;;26.23;18.53;;;;;;;;;;4394591;32;317408;-89
2023/02/15 10:39:42;;;;;;;26.83;18.47;;;;;;;;;;4393584;32;318201;-90
2023/02/15 10:42:17;;;;;;;26.47;18.07;;;;;;;;;;4402797;32;318533;-88
2023/02/15 10:44:57;;;;;;;25.87;19.17;;;;;;;;;;4392498;32;318843;-88
2023/02/15 10:47:38;;;;;;;24.90;18.47;;;;;;;;;;4402412;32;318356;-88
2023/02/15 10:50:20;;;;;;;25.17;17.37;;;;;;;;;;4389598;32;419201;-89
2023/02/15 10:53:04;;;;;;;21.03;15.10;;;;;;;;;;4393490;32;318877;-90
2023/02/15 10:55:43;;;;;;;22.63;16.40;;;;;;;;;;4394149;32;319431;-88
2023/02/15 10:58:24;;;;;;;25.03;18.77;;;;;;;;;;4403187;32;318659;-90
2023/02/15 11:01:01;;;;;;;46.87;17.47;;;;;;;;;;4393436;32;319152;-88
2023/02/15 11:03:43;;;;;;;27.20;15.23;;;;;;;;;;4394435;32;319773;-89
2023/02/15 11:06:12;;;;;;;32.10;16.73;;;;;;;;;;4415743;32;319289;-88
2023/02/15 11:08:43;;;;;;;20.93;16.63;;;;;;;;;;4399429;32;355565;-87
2023/02/15 11:11:16;;;;;;;18.47;14.03;;;;;;;;;;4412223;32;319210;-88
2023/02/15 11:13:49;;;;;;;25.23;16.20;;;;;;;;;;4397077;32;318423;-88
2023/02/15 11:16:20;;;;;;;24.40;16.50;;;;;;;;;;4403671;32;358393;-89
2023/02/15 11:18:51;;;;;;;24.12;16.58;;;;;;;;;;4392634;32;356297;-88
2023/02/15 11:21:23;;;;;;;29.33;16.73;;;;;;;;;;4402751;32;319161;-88
2023/02/15 11:23:50;;;;;;;27.33;19.43;;;;;;;;;;4391983;32;350298;-87
2023/02/15 11:26:22;;;;;;;22.20;17.87;;;;;;;;;;4403387;32;318517;-87
2023/02/15 11:28:54;;;;;;;26.57;17.97;;;;;;;;;;4393428;32;318603;-88
2023/02/15 11:31:26;;;;;;;27.83;17.60;;;;;;;;;;4403074;32;319491;-89
2023/02/15 11:33:57;;;;;;;28.50;20.13;;;;;;;;;;4391231;32;417925;-89
2023/02/15 11:36:37;;;;;;;24.43;17.47;;;;;;;;;;4403889;32;347819;-87
2023/02/15 11:39:10;;;;;;;26.73;16.67;;;;;;;;;;4384928;32;416596;-90
2023/02/15 11:41:41;;;;;;;36.67;17.23;;;;;;;;;;4393716;32;319340;-87
2023/02/15 11:44:15;;;;;;;22.33;16.13;;;;;;;;;;4403057;32;318685;-88
2023/02/15 11:46:43;;;;;;;21.37;14.67;;;;;;;;;;4393177;32;335185;-89
2023/02/15 11:49:23;;;;;;;18.77;13.87;;;;;;;;;;4405468;32;318556;-90
2023/02/15 11:51:51;;;;;;;27.50;15.20;;;;;;;;;;4393732;32;319207;-88
2023/02/15 11:54:20;;;;;;;26.30;15.50;;;;;;;;;;4403750;32;319272;-88
2023/02/15 11:56:47;;;;;;;20.23;15.03;;;;;;;;;;4393701;32;319454;-90
2023/02/15 11:59:22;;;;;;;19.60;15.97;;;;;;;;;;4403405;32;319630;-88
2023/02/15 12:01:51;;;;;;;16.60;12.93;;;;;;;;;;4391782;32;318462;-87
2023/02/15 12:04:24;;;;;;;17.70;13.67;;;;;;;;;;4402385;32;318586;-89
2023/02/15 12:06:56;;;;;;;20.37;16.67;;;;;;;;;;4393929;32;318600;-87
2023/02/15 12:09:32;;;;;;;21.03;15.50;;;;;;;;;;4403581;32;318521;-88
2023/02/15 12:12:24;;;;;;;21.77;14.83;;;;;;;;;;4391747;32;416885;-87
2023/02/15 12:14:53;;;;;;;24.33;16.93;;;;;;;;;;4394617;32;318574;-87
2023/02/15 12:17:23;;;;;;;20.77;15.30;;;;;;;;;;4407166;32;318502;-88
2023/02/15 12:19:53;;;;;;;23.77;14.23;;;;;;;;;;4404332;32;317206;-87
2023/02/15 12:22:25;;;;;;;22.03;17.57;;;;;;;;;;4419334;32;318707;-87
2023/02/15 12:24:55;;;;;;;22.37;14.13;;;;;;;;;;4409805;32;318990;-88
2023/02/15 12:27:24;;;;;;;17.67;14.87;;;;;;;;;;4418609;32;317164;-88
2023/02/15 12:29:54;;;;;;;30.20;15.27;;;;;;;;;;4404898;32;318785;-90
2023/02/15 12:32:25;;;;;;;19.17;14.77;;;;;;;;;;4410708;32;318493;-88
2023/02/15 12:34:52;;;;;;;19.87;15.03;;;;;;;;;;4401231;32;319087;-87
2023/02/15 12:37:23;;;;;;;21.00;15.47;;;;;;;;;;4408980;32;319862;-87
2023/02/15 12:39:55;;;;;;;24.27;15.67;;;;;;;;;;4397056;32;318729;-88
2023/02/15 12:42:24;;;;;;;27.43;18.93;;;;;;;;;;4407002;32;319270;-88
2023/02/15 12:44:59;;;;;;;23.73;17.67;;;;;;;;;;4395532;32;355606;-89
2023/02/15 12:47:29;;;;;;;24.43;15.23;;;;;;;;;;4407631;32;319157;-88
2023/02/15 12:50:16;;;;;;;21.20;15.33;;;;;;;;;;4392748;32;417436;-88
2023/02/15 12:52:43;;;;;;;21.13;15.47;;;;;;;;;;4394861;32;319330;-88
2023/02/15 12:55:22;;;;;;;23.03;16.43;;;;;;;;;;4405666;32;319329;-89
2023/02/15 12:57:50;;;;;;;21.40;16.50;;;;;;;;;;4393947;32;319149;-87
2023/02/15 13:00:31;;;;;;;15.37;12.77;;;;;;;;;;4405250;32;319787;-88
2023/02/15 13:03:01;;;;;;;17.97;14.60;;;;;;;;;;4385516;32;417948;-87
2023/02/15 13:05:33;;;;;;;20.43;14.60;;;;;;;;;;4394501;32;318559;-87
2023/02/15 13:08:02;;;;;;;20.33;15.83;;;;;;;;;;4406156;32;318555;-88
2023/02/15 13:10:32;;;;;;;27.07;16.50;;;;;;;;;;4395347;32;319187;-88
2023/02/15 13:13:02;;;;;;;51.03;29.80;;;;;;;;;;4405992;32;319876;-89
2023/02/15 13:15:36;;;;;;;24.07;17.53;;;;;;;;;;4394529;32;319502;-89
2023/02/15 13:18:11;;;;;;;29.77;23.93;;;;;;;;;;4404484;32;318344;-88
2023/02/15 13:20:40;;;;;;;18.97;14.90;;;;;;;;;;4393901;32;319556;-88
2023/02/15 13:23:28;;;;;;;23.63;15.87;;;;;;;;;;4404512;32;319334;-89
2023/02/15 13:25:58;;;;;;;21.27;15.67;;;;;;;;;;4391345;32;419631;-87
2023/02/15 13:28:32;;;;;;;24.10;16.07;;;;;;;;;;4403591;32;318547;-88
2023/02/15 13:30:59;;;;;;;26.67;18.90;;;;;;;;;;4390083;32;417981;-88
2023/02/15 13:33:33;;;;;;;24.30;17.03;;;;;;;;;;4403767;32;318582;-88
2023/02/15 13:36:07;;;;;;;27.70;17.43;;;;;;;;;;4390398;32;418213;-87
2023/02/15 13:39:10;;;;;;;43.30;21.03;;;;;;;;;;4394925;32;318728;-89
2023/02/15 13:41:49;;;;;;;510.60;238.60;;;;;;;;;;4392082;32;319033;-88
2023/02/15 13:44:26;;;;;;;251.60;133.40;;;;;;;;;;4404076;32;321583;-90
2023/02/15 13:47:10;;;;;;;89.13;53.63;;;;;;;;;;4393229;32;421355;-88
2023/02/15 13:49:51;;;;;;;103.70;58.93;;;;;;;;;;4398524;32;319265;-88
2023/02/15 13:52:22;;;;;;;38.90;26.00;;;;;;;;;;4408650;32;319696;-89
2023/02/15 13:55:11;;;;;;;37.73;23.50;;;;;;;;;;4397925;32;319125;-88
2023/02/15 13:57:58;;;;;;;22.20;19.13;;;;;;;;;;4403859;32;319177;-88
2023/02/15 14:00:30;;;;;;;25.27;16.17;;;;;;;;;;4416396;32;317539;-88
2023/02/15 14:03:33;;;;;;;27.87;17.70;;;;;;;;;;4399581;32;420571;-87
2023/02/15 14:06:35;;;;;;;21.40;15.37;;;;;;;;;;4404822;32;419013;-88
2023/02/15 14:09:13;;;;;;;24.73;15.50;;;;;;;;;;4405660;32;417821;-87
2023/02/15 14:11:49;;;;;;;43.20;26.00;;;;;;;;;;4407383;32;319213;-88
2023/02/15 14:14:40;;;;;;;31.07;18.87;;;;;;;;;;4414922;32;319060;-89
2023/02/15 14:17:16;;;;;;;20.93;15.93;;;;;;;;;;4395774;32;418037;-88
2023/02/15 14:19:50;;;;;;;23.17;15.87;;;;;;;;;;4396059;32;319723;-91
2023/02/15 14:22:31;;;;;;;24.97;16.13;;;;;;;;;;4404383;32;327147;-88
2023/02/15 14:25:13;;;;;;;39.80;26.73;;;;;;;;;;4394260;32;419731;-89
2023/02/15 14:27:50;;;;;;;25.37;19.73;;;;;;;;;;4382683;32;339021;-88
2023/02/15 14:30:21;;;;;;;36.43;26.20;;;;;;;;;;4405081;32;319518;-88
2023/02/15 14:32:52;;;;;;;24.43;18.10;;;;;;;;;;4393776;32;319425;-88
2023/02/15 14:35:20;;;;;;;26.10;19.07;;;;;;;;;;4404467;32;329815;-88
2023/02/15 14:37:55;;;;;;;26.07;18.63;;;;;;;;;;4394383;32;319967;-87
2023/02/15 14:43:28;;;;;;;25.83;18.40;;;;;;;;;;4392485;32;389390;-88
2023/02/15 14:45:56;;;;;;;28.87;17.03;;;;;;;;;;4391472;32;419288;-88
2023/02/15 14:48:31;;;;;;;32.17;21.97;;;;;;;;;;4390805;32;319500;-87
2023/02/15 14:50:58;;;;;;;24.30;17.47;;;;;;;;;;4389834;32;419225;-87
2023/02/15 14:53:38;;;;;;;23.93;14.93;;;;;;;;;;4403133;32;319221;-89
2023/02/15 14:56:26;;;;;;;27.47;20.40;;;;;;;;;;4390666;32;422439;-87
2023/02/15 14:58:59;;;;;;;28.67;20.57;;;;;;;;;;4389666;32;419397;-90
2023/02/15 15:01:28;;;;;;;21.90;16.57;;;;;;;;;;4404103;32;318660;-88